Terminal Aerodrome Forecast
Issued by NWS

Home | Current Version | Previous Version | Text Only | Print | Product List | Glossary On
Versions: 1 2 3 4 5 6 7 8 9 10 11 12
000
FTUS45 KABQ 160534
TAFGUP
TAF
KGUP 160534Z 1606/1706 VRB03KT P6SM FEW250
     FM161700 24009KT P6SM BKN200
     FM162000 24010G18KT P6SM SCT120 BKN180
     FM170200 22007KT P6SM BKN170=

USA.gov is the U.S. government's official web portal to all federal, state and local government web resources and services.